Historique des stations

Station météo de Romilly-sur-Aigre

Altitude de la station : 111 m







Données météorologiques pour le 17/01/2021
Date
Heure
Températures Humidité Point de rosée Vitesse
du vent
Direction Rafales Windchill Pression Pluviométrie
Cumul
Date
Heure
Températures Humidité Point de rosée Vitesse
du vent
Direction Rafales Windchill Pression Pluviométrie
Cumul
17/01/2021 14:138.2 °C80 %4.9 °C13 km/hNW24 km/h4.91025 hPa0.0 mm
17/01/2021 13:588.1 °C82 %5.2 °C15 km/hNW27 km/h5.21025 hPa0.0 mm
17/01/2021 13:438.0 °C81 %4.9 °C10 km/hNNO27 km/h4.91025 hPa0.0 mm
17/01/2021 13:287.9 °C82 %5.0 °C15 km/hNNO29 km/h5.01025 hPa0.0 mm
17/01/2021 13:137.9 °C83 %5.2 °C13 km/hNW24 km/h5.21025 hPa0.0 mm
17/01/2021 12:587.8 °C84 %5.2 °C19 km/hNW23 km/h5.21026 hPa0.0 mm
17/01/2021 12:437.6 °C85 %5.2 °C19 km/hNW24 km/h5.21026 hPa0.0 mm
17/01/2021 12:287.3 °C85 %5.0 °C18 km/hNNO26 km/h5.01025 hPa0.0 mm
17/01/2021 12:137.2 °C85 %4.8 °C3 km/hNNO27 km/h4.81025 hPa0.0 mm
17/01/2021 11:586.8 °C85 %4.5 °C16 km/hNW23 km/h4.51025 hPa0.0 mm
17/01/2021 11:436.4 °C86 %4.3 °C13 km/hNW24 km/h4.31025 hPa0.0 mm
17/01/2021 11:286.2 °C86 %4.0 °C8 km/hONO24 km/h4.01025 hPa0.0 mm
17/01/2021 11:135.9 °C88 %4.1 °C11 km/hNW24 km/h4.11025 hPa0.0 mm
17/01/2021 10:585.7 °C89 %4.0 °C13 km/hONO21 km/h4.01024 hPa0.0 mm
17/01/2021 10:435.2 °C90 %3.7 °C16 km/hONO21 km/h3.71024 hPa0.0 mm
17/01/2021 10:284.8 °C91 %3.5 °C11 km/hONO19 km/h3.51024 hPa0.0 mm
17/01/2021 10:134.6 °C91 %3.2 °C13 km/hONO15 km/h3.21024 hPa0.0 mm
17/01/2021 09:584.2 °C92 %3.0 °C10 km/hO15 km/h3.01024 hPa0.0 mm
17/01/2021 09:433.9 °C92 %2.7 °C5 km/hONO13 km/h2.71024 hPa0.0 mm
17/01/2021 09:283.6 °C93 %2.5 °C11 km/hO15 km/h2.51023 hPa0.0 mm
17/01/2021 09:133.6 °C93 %2.6 °C10 km/hONO15 km/h2.61023 hPa0.0 mm
17/01/2021 08:583.7 °C93 %2.7 °C5 km/hO11 km/h2.71023 hPa7.0 mm
17/01/2021 08:434.1 °C92 %2.9 °C2 km/hOSO13 km/h2.91022 hPa7.0 mm
17/01/2021 08:284.4 °C92 %3.3 °C6 km/hO11 km/h3.31022 hPa7.0 mm
17/01/2021 08:134.9 °C92 %3.7 °C10 km/hO19 km/h3.71022 hPa7.0 mm
17/01/2021 07:585.1 °C93 %4.0 °C10 km/hO16 km/h4.01022 hPa7.0 mm
17/01/2021 07:435.0 °C94 %4.1 °C13 km/hONO18 km/h4.11022 hPa7.0 mm
17/01/2021 07:285.1 °C94 %4.2 °C5 km/hNW16 km/h4.21022 hPa7.0 mm
17/01/2021 07:135.1 °C95 %4.3 °C6 km/hONO19 km/h4.31022 hPa7.0 mm
17/01/2021 06:584.8 °C94 %3.9 °C6 km/hONO13 km/h3.91022 hPa6.8 mm
17/01/2021 06:434.9 °C94 %4.0 °C3 km/hNW10 km/h4.01022 hPa6.8 mm
17/01/2021 06:285.1 °C94 %4.2 °C3 km/hNW13 km/h4.21022 hPa6.8 mm
17/01/2021 06:135.2 °C94 %4.3 °C11 km/hNW19 km/h4.31021 hPa6.8 mm
17/01/2021 05:585.2 °C95 %4.4 °C13 km/hONO18 km/h4.41021 hPa6.8 mm
17/01/2021 05:435.2 °C95 %4.4 °C13 km/hONO19 km/h4.41021 hPa6.8 mm
17/01/2021 05:285.2 °C95 %4.4 °C13 km/hO16 km/h4.41021 hPa6.8 mm
17/01/2021 05:135.2 °C95 %4.4 °C6 km/hNW18 km/h4.41021 hPa6.8 mm
17/01/2021 04:585.2 °C95 %4.4 °C15 km/hONO16 km/h4.41021 hPa6.8 mm
17/01/2021 04:435.3 °C95 %4.6 °C11 km/hNW16 km/h4.61021 hPa6.8 mm
17/01/2021 04:285.3 °C95 %4.5 °C6 km/hONO16 km/h4.51021 hPa6.8 mm
17/01/2021 04:135.2 °C96 %4.6 °C8 km/hNW18 km/h4.61020 hPa6.8 mm
17/01/2021 03:585.1 °C96 %4.5 °C10 km/hO16 km/h4.51020 hPa6.8 mm
17/01/2021 03:435.1 °C96 %4.5 °C6 km/hO11 km/h4.51020 hPa6.8 mm
17/01/2021 03:284.9 °C96 %4.4 °C10 km/hO15 km/h4.41020 hPa6.8 mm
17/01/2021 03:135.0 °C96 %4.4 °C6 km/hO15 km/h4.41020 hPa6.8 mm
17/01/2021 02:584.9 °C96 %4.4 °C10 km/hO13 km/h4.41020 hPa6.8 mm
17/01/2021 02:434.9 °C96 %4.4 °C8 km/hONO15 km/h4.41020 hPa6.8 mm
17/01/2021 02:284.8 °C97 %4.3 °C13 km/hO16 km/h4.31020 hPa6.8 mm
17/01/2021 02:134.6 °C97 %4.1 °C11 km/hONO16 km/h4.11020 hPa6.8 mm
17/01/2021 01:584.3 °C97 %3.9 °C6 km/hO16 km/h3.91020 hPa6.8 mm
17/01/2021 01:433.8 °C97 %3.3 °C6 km/hONO13 km/h3.31020 hPa6.8 mm
17/01/2021 01:133.4 °C96 %2.9 °C3 km/hONO11 km/h2.91020 hPa6.8 mm
17/01/2021 00:583.5 °C96 %2.9 °C6 km/hONO11 km/h2.91020 hPa6.8 mm
17/01/2021 00:433.6 °C96 %3.0 °C6 km/hONO13 km/h3.01020 hPa6.8 mm
17/01/2021 00:283.3 °C97 %2.8 °C8 km/hONO11 km/h2.81020 hPa6.8 mm
17/01/2021 00:132.6 °C96 %2.0 °C5 km/hONO10 km/h2.01020 hPa6.8 mm


Minima :

Température : 2.6 °C
Humidité : 80 %
Point de rosée : 2.0 °C
Vent moyen : 2 km/h
Windchill : 2.0
Pression atm. : 1020 hPa
Maxima :

Température : 8.2 °C
Humidité : 97 %
Point de rosée : 5.2 °C
Vent moyen : 19 km/h
Windchill : 5.2
Pression atm. : 1026 hPa
Rafales max : 29 km/h
Cumul de pluie sur 24H : 7.0 mm

Romilly-sur-Aigre est une commune du département Eure-et-Loir (28).
La station météorologique du réseau de l'association la plus proche de Romilly-sur-Aigre est celle de Mainvilliers
Site du propriétaire de la station : http://www.sohade.fr



Icône Facebook Association Météo Centre Icône Twitter Association Météo Centre Icône Chaîne Youtube Association Météo Centre Icône contact Association Météo Centre Icône Insta Association Météo Centre